Timeline UpdatesTrip UpdatesNews PostsPvt PostsTravel TipsAdmin PostsConv PostsFollowed PostsChat RequestsBlog PostsPNR Posts

Disclaimer
Search
 
 
Tue Jul 29, 2014 12:13:04 ISTHomeTrainsΣChainsAtlasPNRForumGalleryNewsFAQTripsMembersLoginFeedback
No Recent News for this Train
Other Trains in the News **new
Latest...
Will be regulated on Fridays till the departure of 12688 Dehradun - Madurai Express from Platform No. 1 from 10.05.2014 to 23.06.2014
Fri May 09, 2014 (05:32AM)
⇐ Return Journey: Train# 18478

18477/Kalinga Utkal Express

Mar 27 2014 (3:30PM)
Change Departure Station:
Change Arrival Station:
Post a Train Travel TipPost a Train Travel Tip **new
Post a Comment/Question/Picture/VideoPost a Comment/Question/Picture/Video
Pantry/Catering
✓ Pantry Car Avbl
✓ Catering Avbl
RSA - Rake Sharing
Rake/Coach Composition
Coach Composition:ENG-SLR-GS-GS-A1-B2-B1-S12-S11-S10-PC-S9-S8-S7-S6-S5-S4-S3-S2-S1-GS-SLR. By DJ 132 Entry# 701081
Loco
PURI-NZM: TKD WAP-7 NZM-HW: LDH WDM-3A
News    PNR    Forum    Time-Table    Availability    Fare Chart    Map    Arr/Dep History    Trips    Gallery    ΣChains    X/O    Timeline    
Travel Time: 47h 35m    72 halts    Distance: 2372 km    Avg Speed: 49 km/hr
Type: Mail/Express
Zone: ECoR/East Coast
Departs @ 20:55 (Avg 38m late)
Platform# 5
SMTWTFS
Puri/PURI 
Arrives @ 20:30 +2 nights (Avg 22m late)
Platform# 2
SMTWTFS
Haridwar Junction/HW 

72 halts. 335 intermediate Stations between Puri and Haridwar Junction

Show ALL intermediate Stations  Show Old Time-Table

#CodeStation NameX/OArrivesAvgDepartsAvgHaltPFDay#KmSpeedElevZoneAddress
1PURI»Puri (5)»  -20:55+38510.04912mECoRPuri, Odisha
2SILSakhi Gopal (3)  21:15+4421:16+451m--116.44810mECoRPuri, Odisha
3KURKhurda Road Junction (7)X  21:50+4721:55+485m--143.94525mECoRKhordha, Odisha
4BBSBhubaneswar (4)  22:20+5022:25+515m4162.86740mECoRBhubaneshwar, Odisha
5CTCCuttack Junction (5)  22:50+1:0222:55+1:025m1190.77728mECoRCuttack, Odisha
6JJKRJajpur Keonjhar Road (4)  23:51+1:0223:52+1:031m--1162.74036mECoRJajpur, Odisha
7BHCBhadrak (4)X  00:58+4501:00+462m--2206.48323mECoRBhadrak, Odisha
8SOROSoroX  01:21+5301:22+551m--2235.47214mSERSoro, Odisha
9BLSBalasore (4)X  01:50+5201:55+515m--2268.87019mSERBalasore, Odisha
10BTSBasta (3)X  02:19+5802:20+591m--2296.86916mSERBasta, Odisha
11JERJaleswar (4)X  02:37+1:0002:38+1:001m--2316.38313mSERJaleswar, Odisha
12HIJHijli (2)  03:25+5503:26+581m--2381.05048mSERdist - paschim medinipur, West Bengal
13CKUChakulia (4)  04:47+3804:48+411m--2448.880126mSERChakulia, Jharkhand
14GTSGhatsila (3)X  05:11+1905:12+201m--2479.441103mSEREast Singhbhum, Jharkhand
15TATATatanagar Junction (5)  06:05+4206:10+445m32515.560164mSER91-657-2423026, Jharkhand
16SINISini Junction (3)X  06:37+4706:38+481m--2542.557182mSERNational Highway 33, Jharkhand
17RKSNRajkharsawan Junction (3)  06:54+4706:55+481m--2557.848189mSERSaraikela Kharswan District, Jharkhand
18CKPChakradharpur (3)X  07:20+4107:30+4210m--2577.884235mSERChakradharpur (West Singhbhum), Jharkhand
19GOLGoilkera (2)  07:54+4907:55+501m--2611.655333mSERGoilkera, Jharkhand
20MOUManoharpur  08:25+4608:26+471m--2639.164228mSERManoharpur, Jharkhand
21BZRBisra  08:50+4908:51+501m--2664.8114224mSERSundargarh, Odisha
22BNDMBondamunda (2)  08:55+1:0908:56+1:071m--2672.321213mSERRourkela, Odisha
23ROURourkela Junction (5)X  09:15+4909:30+4915m12678.966198mSERRourkela, Odisha
24GPRaj Gangpur (3)  09:57+5209:58+531m12708.774237mSERRaj Ganpur, Odisha
25BMBBamra (3)  10:26+5510:27+561m--2743.335259mSERBamra PH : 06642-229268, Odisha
26JSGJharsuguda Junction (5)X  11:30+4111:40+4510m--2779.878236mSERJharsuguda, Odisha
27BRJNBrajrajnagarX  11:49+4511:50+471m--2791.559212mSECRBrajrajnagar, Odisha
28BPHBelpaharX  11:59+5312:00+571m--2800.485235mSECRBelpahar, Odisha
29RIGRaigarh (3)X  12:36+1:0412:41+1:045m22851.589220mSECRRaigarh, Chhattisgarh
30KHSKharsia  13:04+1:1113:05+1:131m--2885.471259mSECRNational Highway 200, Chhattisgarh
31SKTSakti (4)  13:18+1:1513:19+1:161m--2900.874237mSECRJanjgir-Champa, Chhattisgarh
32BUABaradwar  13:31+1:1913:32+1:211m--2915.755256mSECRJanjgir-Champa, Chhattisgarh
33CPHChampa Junction (3)  13:49+1:2413:54+1:225m22931.265264mSECRNational Highway 200 (07819-245767), Chhattisgarh
34NIANaila  14:04+1:2314:05+1:241m--2942.069273mSECRJanjgir, Chhattisgarh
35AKTAkaltara (4)X  14:18+1:2314:19+1:241m--2957.032284mSECRDist. Janjgir Champa, Chhattisgarh
36BSPBilaspur Junction (8)  15:10+1:0215:25+1:1215m22984.260271mSECRBilaspur, Chhattisgarh
37KGBKargi Road  15:57+1:1515:58+1:181m--21016.247327mSECRBilaspur, Chhattisgarh
38BIGBelgahna  16:18+1:1816:19+1:231m--21032.049327mSECRBilaspur, Chhattisgarh
39PNDPendra Road  17:25+1:2917:30+1:325m921085.861620mSECRBilaspur district, Chhattisgarh
40APRAnuppur Junction (3)X  18:20+1:3718:25+1:385m--21136.976487mSECRAnuppur, Madhya Pradesh
41AALAmlaiX  18:35+1:3818:36+1:391m--21149.652495mSECRAnuppur, Madhya Pradesh
42BUHBurharX  18:46+1:3718:47+1:391m--21158.331494mSECRBurhar, Madhya Pradesh
43SDLShahdolX  19:25+1:2419:30+1:245m--21177.864466mSECR, Madhya Pradesh
44BRSBirsinghpur  20:05+1:2320:06+1:241m--21215.248461mSECRPali, Madhya Pradesh
45NRZBNowrozabadX  20:15+1:2320:16+1:241m--21222.447458mSECRNational Highway 78, Madhya Pradesh
46UMRUmaria (3)  20:45+1:0920:50+1:085m221245.060469mSECRUmaria, Madhya Pradesh
47CHDChandia Road (1)X  21:09+1:0221:10+1:031m121264.023406mSECRNational Highway 78, Madhya Pradesh
48KMZKatni Murwara  22:55+4123:10+4915m--21303.870385mWCRMP 483504 ?, Madhya Pradesh
49DMODamoh (2)  00:43+5000:45+512m--31413.078365mWCRDamoh, Madhya Pradesh
50PHAPatharia  01:05+5701:07+582m--31439.161382mWCRState Highway 14, Madhya Pradesh
51SGOSaugor (2)X  01:57+1:0202:00+1:033m--31490.155519mWCRMP 470001Madhya pradesh, Madhya Pradesh
52KYEKhurai (5)XO  02:58+5303:00+542m--31542.916439mWCRKhurai, Madhya Pradesh
53MAKRMalkheri Junction (2)  04:05+2504:07+282m--31560.161421mWCRGuna, Madhya Pradesh
54LARLalitpur (3)X  05:09+3905:10+521m331623.2114373mNCRLalitpur, Uttar Pradesh
55TBTTalbahat (4)  05:31+4105:33+412m--31663.271314mNCRKhaniyadhana Station Rd, Madhya Pradesh
56BABBabina (3)XO  05:54+5105:55+551m131688.138285mNCRBabina, Uttar Pradesh
57JHSJhansi Junction (7)  06:35+4506:43+518m431713.665259mNCRJhansi, Uttar Pradesh
58DAADatia (2)  07:06+5007:07+551m--31738.683264mNCRDatia, Madhya Pradesh
59DBADabra (3)X  07:29+1:0707:30+1:111m131769.039204mNCRDabra(District-Gwalior), Madhya Pradesh
60GWLGwalior Junction (4)X  08:35+5508:40+575m231811.383214mNCRGwalior, Madhya Pradesh
61MRAMorena (3)  09:08+5909:09+1:011m231849.867176mNCRMorena, Madhya Pradesh
62DHODholpur Junction (3)X  09:33+4609:34+481m131876.744177mNCRDholpur, Rajasthan
63AGCAgra Cantt. (6)X  10:45+4410:53+478m331929.324174mNCRAgra, Uttar Pradesh
64RKMRaja Ki Mandi (4)  11:03+5111:04+521m131933.369170mNCRAgra, Uttar Pradesh
65MTJMathura Junction (10)X  11:47+5711:52+575m231983.069179mNCRMathura, Uttar Pradesh
66FDBFaridabad (4)X  13:30+4313:31+441m232096.137206mNRold Faridabad, Haryana
67NZMDelhi Hazrat Nizamuddin (7)XO14:05+1:0614:35+1:0330m132116.939209mNRNizamuddin East/Sarai KaleKhan Bus Terminal, Delhi NCT
68GZBGhaziabad Junction (6)  15:11+1:1415:13+1:142m132140.367217mNRGhaziabad, Uttar Pradesh
69MTCMeerut City Junction (6)  15:55+1:2516:00+1:245m132187.664229mNRMeerut, Uttar Pradesh
70MOZMuzaffarnagar (3)  16:52+1:1916:53+1:211m132243.218247mNRMuzaffarNagar, Uttar Pradesh
71DBDDeoband (2)X  18:11+4018:12+411m132267.234258mNRSaharanpur, Uttar Pradesh
72TPZTapri Junction (2)  19:01+2919:02+311m232294.955274mNRTapri -Saharanpur, Uttar Pradesh
73RKRoorkee (3)X  19:37+3519:38+361m332326.952264mNRRoorkee - 247667, Uttarakhand
74HW•Haridwar Junction (9)•  20:30+22-232371.6-294mNRHaridwar, Uttarakhand
Scroll to Top
Scroll to Bottom